AirNav   Pilot Hours Calculator
 
 460 users online  

AL69 Vaughn Airport
Seminole, Alabama, USA

GOING TO SEMINOLE?


FAA INFORMATION EFFECTIVE 10 OCTOBER 2019

Location

FAA Identifier: AL69
Lat/Long: 30-30-30.7030N 087-29-29.9310W
30-30.511717N 087-29.498850W
30.5085286,-87.4916475
(estimated)
Elevation: 30 ft. / 9 m (estimated)
Variation: 01E (1985)
From city: 1 mile SW of SEMINOLE, AL
Time zone: UTC -5 (UTC -6 during Standard Time)
Zip code: 36574

Airport Operations

Airport use: Private use. Permission required prior to landing
Control tower: no
ARTCC: JACKSONVILLE CENTER
FSS: ANNISTON FLIGHT SERVICE STATION
Attendance: UNATNDD
Wind indicator: yes
Segmented circle: no

Airport Communications

WX ASOS at PNS (16 nm E): PHONE 850-436-4799
WX AWOS-3PT at JKA (16 nm SW): 134.525 (251-968-7581)

Nearby radio navigation aids

VOR radial/distance  VOR name  Freq  Var
NUNr284/(8.3)SAUFLEY VOR108.8001E
BFMr098/29.8BROOKLEY VORTAC112.8004E

 
NDB name  Hdg/Dist  Freq  Var  ID
PICKENS287/16.832602WPKZ .--. -.- --..

Airport Services

Runway Information

Runway 18/36

Dimensions: 4000 x 70 ft. / 1219 x 21 m
Surface: turf
RUNWAY 18  RUNWAY 36
Traffic pattern: leftleft

Airport Ownership and Management from official FAA records

Ownership: Privately-owned
Owner: DORRIS E VAUGHN
19755 VAUGHN ROAD
SEMINOLE, AL 36574
Phone 850-572-0061
850-572-7386
Manager: JOHN VAUGHN
18871 VAUGN ROAD
SEMINOLE, AL 36574

Additional Remarks

FOR CD CTC PENSACOLA APCH AT 850-266-6884 OR 850-266-6885.

Instrument Procedures

There are no published instrument procedures at AL69.

Some nearby airports with instrument procedures:

5R4 - Foley Municipal Airport (12 nm SW)
KNPA - Pensacola Naval Air Station/Forrest Sherman Field (13 nm SE)
KPNS - Pensacola International Airport (16 nm E)
KJKA - Jack Edwards National Airport (16 nm SW)
KCQF - H L Sonny Callahan Airport (20 nm W)
 
Loc | Ops | Rwys | IFR | FBO | Links
Com | Nav | Svcs | Stats | Notes

Continental Motors
AirBoss

 
Area around AL69 (Vaughn Airport)
 
Road maps at: MapQuest Bing Google
 
Aerial photo
No photo
 
Sectional chart

 
Airport distance calculator
Flying to Vaughn Airport? Find the distance to fly.

From to AL69

Sunrise and sunset
Times for 24-Oct-2019
 Local
(UTC-5)
 Zulu
(UTC)
Morning civil twilight06:3511:35
Sunrise07:0012:00
Sunset18:0923:09
Evening civil twilight18:3323:33

Current date and time
Zulu (UTC)  24-Oct-2019 06:17:29
Local (UTC-5)  24-Oct-2019 01:17:29
 
METAR
KNPA 
13nm SE 
240556Z AUTO 36003KT 10SM CLR 11/09 A3012 RMK AO2 SLP202 T01060094 10139 20094 402280094 58008 $
KPNS 
16nm E 
240553Z AUTO 02005KT 10SM CLR 14/09 A3013 RMK AO2 SLP205 T01390094 10172 20133 402390128 56006
KJKA 
16nm SW 
240555Z AUTO 00000KT 10SM CLR 10/09 A3013 RMK AO2 T00950090 10140 20095
KCQF 
20nm W 
240555Z AUTO 00000KT 10SM CLR 09/08 A3013 RMK AO2
TAF
KNPA 
13nm SE 
2323/2423 05005KT 9999 FEW250 QNH3008INS FM240900 06006KT 9999 FEW020 SCT250 QNH3010INS FM241400 08008KT 9999 SCT020 SCT040 BKN250 QNH3016INS FM241800 08009KT 9999 SCT020 BKN040 OVC250 QNH3006INS TEMPO 2420/2423 BKN020 OVC040 AUTOMATED SENSOR METWATCH 2403 TIL 2411 T12/2412Z T25/2419Z FN20034
KPNS 
16nm E 
240520Z 2406/2506 VRB04KT P6SM SCT250 FM241500 07008KT P6SM BKN250
NOTAMs
Click for the latest NOTAMs
NOTAMs are issued by the DoD/FAA and will open in a separate window not controlled by AirNav.

 

 
 

Would you like to see your business listed on this page?

 If your business provides an interesting product or service to pilots, flight crews, aircraft, or users of the Vaughn Airport, you should consider listing it here.  To start the listing process, click on the button below
 
Add a business
 

Other Pages about Vaughn Airport

Update a link
 
Copyright © AirNav, LLC. All rights reserved. Privacy Policy  Contact